Погода Жемендзицена 2 недели

Малопольское воеводство, Польша

25 июля-07 августа
  • 25июля
    Сегодня
    +11°
    +23°
    Практически безоблачно
    ВремяПогодаТемператураВлажностьДавлениеВетер, м/сВероятность осадков
    02:00Практически безоблачно+15°C93 %733 мм3.4 м/с46 %
    05:00Практически безоблачно+14°C94 %733 мм4.1 м/с26 %
    08:00Облачно с прояснениями+16°C82 %734 мм6.1 м/с26 %
    11:00Ясно и безоблачно+19°C58 %734 мм5.8 м/с25 %
    14:00Практически безоблачно+22°C42 %733 мм5.6 м/с23 %
    17:00Облачно с прояснениями+22°C40 %733 мм6.0 м/с8 %
    20:00Ясно и безоблачно+20°C50 %733 мм3.6 м/с2 %
    23:00Ясно и безоблачно+16°C61 %733 мм3.1 м/с2 %
  • 26июля
    Пятница
    +14°
    +24°
    Ясно и безоблачно
    ВремяПогодаТемператураВлажностьДавлениеВетер, м/сВероятность осадков
    02:00Ясно и безоблачно+13°C68 %733 мм2.9 м/с2 %
    05:00Ясно и безоблачно+11°C75 %733 мм2.3 м/с2 %
    08:00Облачно с прояснениями+17°C57 %734 мм2.7 м/с2 %
    11:00Практически безоблачно+21°C38 %734 мм2.5 м/с2 %
    14:00Ясно и безоблачно+23°C34 %734 мм1.9 м/с3 %
    17:00Практически безоблачно+24°C33 %734 мм1.9 м/с2 %
    20:00Практически безоблачно+21°C54 %734 мм2.0 м/с2 %
    23:00Небольшая облачность+18°C51 %735 мм0.8 м/с2 %
  • 27июля
    Суббота
    +17°
    +29°
    Облачно с прояснениями
    ВремяПогодаТемператураВлажностьДавлениеВетер, м/сВероятность осадков
    02:00Ясно и безоблачно+16°C58 %735 мм1.2 м/с2 %
    05:00Ясно и безоблачно+15°C64 %735 мм2.1 м/с2 %
    08:00Ясно и безоблачно+20°C51 %736 мм2.4 м/с2 %
    11:00Облачно с прояснениями+25°C35 %736 мм2.8 м/с2 %
    14:00Облачно с прояснениями+27°C33 %736 мм2.3 м/с2 %
    17:00Ясно и безоблачно+29°C32 %736 мм3.2 м/с3 %
    20:00Облачно с прояснениями+25°C48 %736 мм2.4 м/с2 %
    23:00Практически безоблачно+22°C50 %736 мм3.2 м/с2 %
  • 28июля
    Воскресенье
    +12°
    +31°
    Ясно и безоблачно
    ВремяПогодаТемператураВлажностьДавлениеВетер, м/сВероятность осадков
    02:00Ясно и безоблачно+18°C57 %735 мм3.1 м/с2 %
    05:00Облачно с прояснениями+18°C54 %735 мм2.7 м/с2 %
    08:00Ясно и безоблачно+24°C44 %736 мм4.1 м/с4 %
    11:00Практически безоблачно+30°C33 %736 мм6.8 м/с11 %
    14:00Ясно и безоблачно+31°C33 %736 мм6.6 м/с32 %
    17:00Облачно с прояснениями+28°C35 %734 мм6.9 м/с42 %
    20:00Небольшая облачность, возможен дождь с грозой+22°C86 %737 мм7.8 м/с32 %
    23:00Пасмурно, небольшой дождь+18°C73 %740 мм3.8 м/с20 %
  • 29июля
    Понедельник
    +11°
    +23°
    Ясно и безоблачно
    ВремяПогодаТемператураВлажностьДавлениеВетер, м/сВероятность осадков
    02:00Ясно и безоблачно+15°C78 %740 мм3.3 м/с31 %
    05:00Ясно и безоблачно+13°C93 %740 мм3.1 м/с38 %
    08:00Ясно и безоблачно+16°C76 %741 мм3.8 м/с24 %
    11:00Ясно и безоблачно+20°C49 %741 мм5.0 м/с13 %
    14:00Ясно и безоблачно+22°C39 %740 мм5.6 м/с7 %
    17:00Ясно и безоблачно+23°C38 %739 мм5.5 м/с3 %
    20:00Ясно и безоблачно+21°C46 %739 мм3.3 м/с7 %
    23:00Практически безоблачно+17°C60 %739 мм2.7 м/с4 %
Мы используем cookies
Соглашаюсь